createdAt,value
2023-01-13T00:00:31.079Z,99283.26
2023-01-13T00:01:31.540Z,99288.59
2023-01-13T00:02:32.866Z,99289.98
2023-01-13T00:03:31.974Z,99284.73
2023-01-13T00:04:32.394Z,99278.02
2023-01-13T00:05:32.794Z,99279.16
2023-01-13T00:06:33.115Z,99275.05
2023-01-13T00:07:33.430Z,99278.09
2023-01-13T00:08:34.254Z,99284.23
2023-01-13T00:09:34.175Z,99274.83
2023-01-13T00:10:34.888Z,99284.16
2023-01-13T00:11:35.198Z,99274.81
2023-01-13T00:12:35.215Z,99278.73
2023-01-13T00:13:35.572Z,99273.91
2023-01-13T00:14:36.359Z,99280.48
2023-01-13T00:15:36.166Z,99275.39
2023-01-13T00:16:36.566Z,99271.86
2023-01-13T00:17:36.772Z,99272.45
2023-01-13T00:18:37.189Z,99265.79
2023-01-13T00:19:37.495Z,99268.09
2023-01-13T00:20:37.916Z,99271.12
2023-01-13T00:21:38.122Z,99266.45
2023-01-13T00:22:38.543Z,99270.72
2023-01-13T00:23:39.480Z,99270.06
2023-01-13T00:24:39.274Z,99272.2
2023-01-13T00:25:39.391Z,99277.52
2023-01-13T00:26:40.006Z,99272.92
2023-01-13T00:27:40.531Z,99267.59
2023-01-13T00:28:40.521Z,99265.3
2023-01-13T00:29:40.967Z,99264.75
2023-01-13T00:30:41.262Z,99264.15
2023-01-13T00:31:41.571Z,99270.55
2023-01-13T00:32:41.990Z,99272.18
2023-01-13T00:33:42.704Z,99260.21
2023-01-13T00:34:42.866Z,99256.02
2023-01-13T00:35:43.023Z,99259.3
2023-01-13T00:36:43.343Z,99260.47
2023-01-13T00:37:43.670Z,99252.67
2023-01-13T00:38:44.382Z,99258.99
2023-01-13T00:39:44.291Z,99254
2023-01-13T00:40:44.710Z,99255.53
2023-01-13T00:41:45.124Z,99264.97
2023-01-13T00:42:45.431Z,99256.53
2023-01-13T00:43:46.353Z,99262.58
2023-01-13T00:44:46.067Z,99258.23
2023-01-13T00:45:46.364Z,99250.65
2023-01-13T00:46:46.751Z,99257.46
2023-01-13T00:47:47.315Z,99238.06
2023-01-13T00:48:48.145Z,99245.75
2023-01-13T00:49:47.827Z,99236.61
2023-01-13T00:50:56.130Z,99236.93
2023-01-13T00:51:48.457Z,99248.89
2023-01-13T00:52:48.981Z,99241.28
2023-01-13T00:53:51.451Z,99244.86
2023-01-13T00:54:49.703Z,99234.55
2023-01-13T00:55:50.019Z,99240.41
2023-01-13T00:56:50.331Z,99241.31
2023-01-13T00:57:50.752Z,99257.71
2023-01-13T00:58:51.173Z,99260.48
2023-01-13T00:59:51.277Z,99240.58
2023-01-13T01:00:51.782Z,99245.84
2023-01-13T01:01:52.136Z,99250.58
2023-01-13T01:02:52.326Z,99238.77
2023-01-13T01:03:54.493Z,99247.37
2023-01-13T01:04:52.955Z,99246.06
2023-01-13T01:05:53.262Z,99254.05
2023-01-13T01:06:53.683Z,99243.06
2023-01-13T01:07:54.088Z,99242.01
2023-01-13T01:08:55.878Z,99236.73
2023-01-13T01:09:54.633Z,99235.36
2023-01-13T01:11:09.060Z,99248.48
2023-01-13T01:11:56.685Z,99245.38
2023-01-13T01:12:57.092Z,99240.3
2023-01-13T01:13:59.679Z,99232.68
2023-01-13T01:14:57.649Z,99234.21
2023-01-13T01:15:57.954Z,99241.32
2023-01-13T01:16:58.468Z,99238.44
2023-01-13T01:17:58.875Z,99234.36
2023-01-13T01:19:00.135Z,99235.91
2023-01-13T01:19:59.600Z,99237.2
2023-01-13T01:21:03.095Z,99235.64
2023-01-13T01:22:00.636Z,99239.16
2023-01-13T01:23:00.968Z,99246.23
2023-01-13T01:24:02.737Z,99248.27
2023-01-13T01:25:01.677Z,99241.88
2023-01-13T01:26:07.493Z,99234.33
2023-01-13T01:27:04.972Z,99238.27
2023-01-13T01:28:05.385Z,99232.83
2023-01-13T01:29:05.700Z,99232.52
2023-01-13T01:30:07.172Z,99226.38
2023-01-13T01:31:12.852Z,99217.78
2023-01-13T01:32:10.639Z,99225.23
2023-01-13T01:33:10.721Z,99218.56
2023-01-13T01:34:11.163Z,99216.76
2023-01-13T01:35:11.378Z,99220.45
2023-01-13T01:36:13.125Z,99223.33
2023-01-13T01:37:12.223Z,99212.05
2023-01-13T01:38:12.718Z,99206.89
2023-01-13T01:39:12.840Z,99213.38
2023-01-13T01:40:13.678Z,99202.55
2023-01-13T01:41:20.443Z,99212.07
2023-01-13T01:42:19.109Z,99212.55
2023-01-13T01:43:21.355Z,99206.16
2023-01-13T01:45:22.812Z,99197.22
2023-01-13T01:46:20.316Z,99207.38
2023-01-13T01:47:22.823Z,99203.2
2023-01-13T01:48:21.080Z,99200.16
2023-01-13T01:50:25.410Z,99205.48
2023-01-13T01:51:25.591Z,99202.79
2023-01-13T01:53:32.494Z,99199.96
2023-01-13T01:55:34.982Z,99199.47
2023-01-13T01:56:34.348Z,99199.22
2023-01-13T01:59:40.029Z,99205.45
2023-01-13T02:00:39.212Z,99206.52
2023-01-13T02:01:40.792Z,99197.51
2023-01-13T02:02:42.115Z,99202.66
2023-01-13T02:05:46.702Z,99197.86
2023-01-13T02:06:49.378Z,99200.26
2023-01-13T02:07:50.210Z,99196.98
2023-01-13T02:08:48.243Z,99198.8
2023-01-13T02:09:49.085Z,99196.33
2023-01-13T02:11:51.540Z,99192.12
2023-01-13T02:12:54.182Z,99190.12
2023-01-13T02:13:52.597Z,99193.16
2023-01-13T02:14:52.595Z,99186.92
2023-01-13T02:34:41.553Z,99178.33
2023-01-13T02:37:46.900Z,99184.32
2023-01-13T02:44:03.839Z,99180.13
2023-01-13T02:48:12.884Z,99187.35
2023-01-13T02:50:19.850Z,99183.64
2023-01-13T02:51:21.695Z,99184.86
2023-01-13T02:54:30.545Z,99184.69
2023-01-13T02:55:36.780Z,99190.56
2023-01-13T02:56:32.496Z,99197.98
2023-01-13T02:57:34.337Z,99187.25
2023-01-13T02:58:34.755Z,99186.55
2023-01-13T02:59:33.934Z,99190.77
2023-01-13T03:00:32.527Z,99182.78
2023-01-13T03:01:33.301Z,99193.28
2023-01-13T03:02:33.630Z,99188.14
2023-01-13T03:03:33.447Z,99192.5
2023-01-13T03:05:34.378Z,99192.48
2023-01-13T03:09:48.332Z,99186.27
2023-01-13T03:15:10.388Z,99184.66
2023-01-13T03:25:32.772Z,99170.7
2023-01-13T03:30:54.503Z,99177.06
2023-01-13T03:31:59.336Z,99181.91
2023-01-13T03:37:05.208Z,99171.16
2023-01-13T03:39:11.569Z,99168.95
2023-01-13T03:42:23.372Z,99172.81
2023-01-13T03:45:27.242Z,99169.36
2023-01-13T03:48:36.736Z,99169.04
2023-01-13T03:51:43.719Z,99175.1
2023-01-13T03:52:47.000Z,99178.23
2023-01-13T03:55:59.593Z,99176.23
2023-01-13T03:56:56.735Z,99181.69
2023-01-13T03:58:54.603Z,99177.16
2023-01-13T04:05:10.415Z,99174.14
2023-01-13T04:10:21.412Z,99178.11
2023-01-13T04:11:28.164Z,99180.06
2023-01-13T04:13:29.399Z,99183.92
2023-01-13T04:14:28.079Z,99183.26
2023-01-13T04:15:30.392Z,99177.83
2023-01-13T04:16:28.303Z,99188.57
2023-01-13T04:17:28.096Z,99185.06
2023-01-13T04:18:30.571Z,99186.22
2023-01-13T04:19:28.936Z,99185.8
2023-01-13T04:20:29.459Z,99191.09
2023-01-13T04:21:30.900Z,99198.53
2023-01-13T04:22:29.983Z,99190.34
2023-01-13T04:23:30.389Z,99183.14
2023-01-13T04:24:30.584Z,99194.09
2023-01-13T04:25:31.127Z,99199.56
2023-01-13T04:26:31.458Z,99206.89
2023-01-13T04:27:31.917Z,99207.58
2023-01-13T04:28:32.058Z,99200.16
2023-01-13T04:29:32.488Z,99210.12
2023-01-13T04:30:32.908Z,99208.35
2023-01-13T04:31:33.316Z,99206.49
2023-01-13T04:32:33.423Z,99204.98
2023-01-13T04:33:33.853Z,99211.95
2023-01-13T04:34:34.045Z,99210.33
2023-01-13T04:35:35.493Z,99206.16
2023-01-13T04:36:35.111Z,99205.61
2023-01-13T04:37:35.293Z,99205.52
2023-01-13T04:38:35.507Z,99215.19
2023-01-13T04:39:36.336Z,99216.57
2023-01-13T04:40:36.564Z,99219.16
2023-01-13T04:41:36.765Z,99217.97
2023-01-13T04:42:36.971Z,99220.12
2023-01-13T04:43:37.494Z,99214.8
2023-01-13T04:44:37.794Z,99221.19
2023-01-13T04:45:38.097Z,99217.4
2023-01-13T04:46:38.573Z,99218.36
2023-01-13T04:47:39.362Z,99222.2
2023-01-13T04:48:39.041Z,99222.34
2023-01-13T04:49:39.582Z,99217.58
2023-01-13T04:50:39.998Z,99213.44
2023-01-13T04:51:40.412Z,99217.64
2023-01-13T04:52:40.634Z,99221.46
2023-01-13T04:53:40.937Z,99220.88
2023-01-13T04:54:41.244Z,99221.53
2023-01-13T04:55:41.766Z,99222.91
2023-01-13T04:56:41.978Z,99224.05
2023-01-13T04:57:42.904Z,99221.55
2023-01-13T04:58:42.711Z,99225.14
2023-01-13T04:59:43.046Z,99231.45
2023-01-13T05:00:43.635Z,99227.42
2023-01-13T05:01:43.952Z,99227.84
2023-01-13T05:02:44.272Z,99225.75
2023-01-13T05:03:44.339Z,99223.75
2023-01-13T05:04:45.109Z,99228.55
2023-01-13T05:05:45.201Z,99234.89
2023-01-13T05:06:45.524Z,99232.69
2023-01-13T05:07:46.238Z,99229
2023-01-13T05:08:46.266Z,99235.76
2023-01-13T05:09:46.674Z,99235.91
2023-01-13T05:10:47.087Z,99234.36
2023-01-13T05:11:47.413Z,99228.67
2023-01-13T05:12:47.819Z,99228.66
2023-01-13T05:13:48.026Z,99237.3
2023-01-13T05:14:48.466Z,99235.68
2023-01-13T05:15:48.810Z,99239.27
2023-01-13T05:16:52.137Z,99245.11
2023-01-13T05:17:50.319Z,99248.63
2023-01-13T05:18:49.899Z,99246.61
2023-01-13T05:19:50.929Z,99245.31
2023-01-13T05:20:50.636Z,99248.09
2023-01-13T05:21:50.946Z,99242.16
2023-01-13T05:22:51.097Z,99244.44
2023-01-13T05:23:51.686Z,99246.27
2023-01-13T05:24:51.878Z,99241.08
2023-01-13T05:25:52.813Z,99245.67
2023-01-13T05:26:52.722Z,99250.2
2023-01-13T05:27:55.309Z,99246.03
2023-01-13T05:28:53.253Z,99251.44
2023-01-13T05:29:54.067Z,99253.9
2023-01-13T05:30:54.100Z,99253.89
2023-01-13T05:31:54.597Z,99247.33
2023-01-13T05:32:54.976Z,99247.55
2023-01-13T05:33:55.124Z,99241.92
2023-01-13T05:34:56.163Z,99247.73
2023-01-13T05:35:55.849Z,99250.53
2023-01-13T05:36:56.178Z,99248.31
2023-01-13T05:37:56.895Z,99251.52
2023-01-13T05:38:56.899Z,99256.52
2023-01-13T05:39:57.105Z,99250.48
2023-01-13T05:40:59.837Z,99254.07
2023-01-13T05:41:57.937Z,99251.82
2023-01-13T05:43:02.519Z,99254.95
2023-01-13T05:44:00.008Z,99258.55
2023-01-13T05:45:00.203Z,99258.7
2023-01-13T05:46:09.379Z,99256.89
2023-01-13T05:47:01.864Z,99258.21
2023-01-13T05:48:02.185Z,99260.19
2023-01-13T05:49:02.604Z,99264
2023-01-13T05:50:03.944Z,99258.82
2023-01-13T05:51:05.603Z,99260.42
2023-01-13T05:52:03.945Z,99265.7
2023-01-13T05:53:04.459Z,99271.67
2023-01-13T05:54:04.475Z,99273.88
2023-01-13T05:55:05.459Z,99266.74
2023-01-13T05:56:06.631Z,99268.62
2023-01-13T05:57:05.623Z,99266.75
2023-01-13T05:58:05.729Z,99266.48
2023-01-13T05:59:06.040Z,99266.77
2023-01-13T06:00:08.211Z,99275.02
2023-01-13T06:01:09.316Z,99270.97
2023-01-13T06:02:07.291Z,99273.22
2023-01-13T06:03:07.976Z,99271.57
2023-01-13T06:04:08.066Z,99273.65
2023-01-13T06:05:09.149Z,99265.98
2023-01-13T06:06:08.549Z,99271.15
2023-01-13T06:07:09.015Z,99271.38
2023-01-13T06:08:09.683Z,99268.44
2023-01-13T06:09:09.987Z,99267.44
2023-01-13T06:10:11.032Z,99269.43
2023-01-13T06:11:10.538Z,99275.27
2023-01-13T06:12:14.527Z,99273.53
2023-01-13T06:13:11.863Z,99276.08
2023-01-13T06:14:12.276Z,99271.33
2023-01-13T06:15:12.552Z,99272.53
2023-01-13T06:16:12.925Z,99281.86
2023-01-13T06:17:15.385Z,99281.69
2023-01-13T06:18:13.664Z,99286.01
2023-01-13T06:19:14.076Z,99278.97
2023-01-13T06:20:16.533Z,99278.97
2023-01-13T06:21:14.679Z,99277.62
2023-01-13T06:23:16.037Z,99283.88
2023-01-13T06:24:16.547Z,99282
2023-01-13T06:26:24.053Z,99284.94
2023-01-13T06:27:22.516Z,99287.64
2023-01-13T06:28:21.992Z,99284.2
2023-01-13T06:29:22.060Z,99285.67
2023-01-13T06:30:22.536Z,99288.28
2023-01-13T06:31:24.183Z,99287.12
2023-01-13T06:33:37.089Z,99285.66
2023-01-13T06:34:29.715Z,99290.05
2023-01-13T06:35:33.212Z,99288.92
2023-01-13T06:36:37.098Z,99289.51
2023-01-13T06:37:35.477Z,99291.38
2023-01-13T06:38:37.725Z,99291.36
2023-01-13T06:39:35.175Z,99292.86
2023-01-13T06:40:36.107Z,99292.39
2023-01-13T06:41:35.819Z,99290.23
2023-01-13T06:42:38.183Z,99296.38
2023-01-13T06:43:38.192Z,99295.95
2023-01-13T06:44:36.964Z,99297.91
2023-01-13T06:45:37.267Z,99299.4
2023-01-13T06:46:38.032Z,99293.98
2023-01-13T06:47:38.222Z,99291.08
2023-01-13T06:48:38.373Z,99294.03
2023-01-13T06:49:38.948Z,99296.41
2023-01-13T06:50:39.012Z,99300.65
2023-01-13T06:51:39.461Z,99302.76
2023-01-13T06:52:39.766Z,99301.27
2023-01-13T06:53:40.196Z,99304.94
2023-01-13T06:54:40.716Z,99304.95
2023-01-13T06:55:40.932Z,99303.81
2023-01-13T06:56:41.230Z,99310.03
2023-01-13T06:57:49.220Z,99314.07
2023-01-13T06:58:46.564Z,99311.27
2023-01-13T06:59:46.884Z,99316.1
2023-01-13T07:00:47.298Z,99319.16
2023-01-13T07:01:47.752Z,99321.42
2023-01-13T07:02:48.188Z,99321.68
2023-01-13T07:03:48.251Z,99324.23
2023-01-13T07:04:48.766Z,99327.7
2023-01-13T07:05:54.387Z,99327.73
2023-01-13T07:06:51.737Z,99325.94
2023-01-13T07:07:52.161Z,99331.6
2023-01-13T07:08:52.469Z,99327.75
2023-01-13T07:09:52.777Z,99329.56
2023-01-13T07:10:53.258Z,99330.7
2023-01-13T07:11:53.937Z,99329.48
2023-01-13T07:12:53.827Z,99333.83
2023-01-13T07:13:54.139Z,99334.17
2023-01-13T07:14:54.660Z,99327.98
2023-01-13T07:15:59.641Z,99330.73
2023-01-13T07:16:57.143Z,99338.47
2023-01-13T07:17:59.598Z,99333.55
2023-01-13T07:18:57.976Z,99333.64
2023-01-13T07:19:58.151Z,99336.5
2023-01-13T07:21:01.351Z,99336.8
2023-01-13T07:21:58.810Z,99336.84
2023-01-13T07:22:59.212Z,99337.27
2023-01-13T07:23:59.864Z,99341.58
2023-01-13T07:24:59.847Z,99342.48
2023-01-13T07:26:00.581Z,99338.41
2023-01-13T07:27:00.693Z,99335.77
2023-01-13T07:28:01.111Z,99339.78
2023-01-13T07:29:01.352Z,99343.17
2023-01-13T07:30:01.831Z,99342.86
2023-01-13T07:31:02.842Z,99344.78
2023-01-13T07:32:02.666Z,99344.53
2023-01-13T07:33:02.734Z,99344.86
2023-01-13T07:34:04.209Z,99348.08
2023-01-13T07:35:04.206Z,99348.06
2023-01-13T07:36:05.352Z,99351.61
2023-01-13T07:37:04.328Z,99355
2023-01-13T07:38:04.531Z,99351.37
2023-01-13T07:39:05.504Z,99350.45
2023-01-13T07:40:06.715Z,99349.36
2023-01-13T07:41:06.582Z,99357.48
2023-01-13T07:42:06.198Z,99359.44
2023-01-13T07:43:06.436Z,99356.3
2023-01-13T07:44:07.346Z,99355.48
2023-01-13T07:45:09.816Z,99356.64
2023-01-13T07:46:08.825Z,99358.92
2023-01-13T07:47:09.389Z,99361.74
2023-01-13T07:48:10.335Z,99355.4
2023-01-13T07:49:10.156Z,99355.66
2023-01-13T07:50:11.274Z,99362.95
2023-01-13T07:51:12.100Z,99368.29
2023-01-13T07:52:10.985Z,99358.37
2023-01-13T07:53:11.395Z,99369.36
2023-01-13T07:54:11.711Z,99366.75
2023-01-13T07:55:12.024Z,99367.25
2023-01-13T07:56:12.660Z,99371.09
2023-01-13T07:57:13.058Z,99372.25
2023-01-13T07:58:13.196Z,99372.94
2023-01-13T07:59:13.614Z,99370.65
2023-01-13T08:00:14.826Z,99372.26
2023-01-13T08:01:14.589Z,99374.42
2023-01-13T08:02:14.965Z,99374.73
2023-01-13T08:03:14.949Z,99374.88
2023-01-13T08:04:15.365Z,99368.36
2023-01-13T08:05:15.979Z,99375.42
2023-01-13T08:06:15.986Z,99370.27
2023-01-13T08:07:16.735Z,99374.26
2023-01-13T08:08:16.836Z,99372.81
2023-01-13T08:09:17.145Z,99372.55
2023-01-13T08:10:17.961Z,99380.25
2023-01-13T08:11:18.173Z,99388.88
2023-01-13T08:12:18.484Z,99387.39
2023-01-13T08:13:20.302Z,99384.27
2023-01-13T08:14:19.026Z,99391.88
2023-01-13T08:15:19.228Z,99389.64
2023-01-13T08:16:19.711Z,99390.94
2023-01-13T08:17:20.678Z,99394.72
2023-01-13T08:18:22.346Z,99398.84
2023-01-13T08:19:20.642Z,99398.78
2023-01-13T08:20:20.893Z,99398.09
2023-01-13T08:21:21.524Z,99393.57
2023-01-13T08:22:21.855Z,99405.19
2023-01-13T08:23:22.974Z,99406.25
2023-01-13T08:24:22.757Z,99401.23
2023-01-13T08:25:23.490Z,99406.02
2023-01-13T08:26:23.076Z,99397.88
2023-01-13T08:27:23.389Z,99400.88
2023-01-13T08:28:23.916Z,99403.89
2023-01-13T08:29:24.236Z,99399.51
2023-01-13T08:30:24.510Z,99406.73
2023-01-13T08:31:24.967Z,99400.39
2023-01-13T08:32:25.264Z,99402.62
2023-01-13T08:33:25.597Z,99410.23
2023-01-13T08:34:26.131Z,99407.45
2023-01-13T08:35:26.327Z,99406.09
2023-01-13T08:36:26.757Z,99408.85
2023-01-13T08:37:26.940Z,99409.84
2023-01-13T08:38:27.366Z,99412.23
2023-01-13T08:39:27.940Z,99416
2023-01-13T08:40:28.304Z,99411.23
2023-01-13T08:41:28.732Z,99411.78
2023-01-13T08:42:28.821Z,99409.41
2023-01-13T08:43:29.234Z,99411.83
2023-01-13T08:44:32.210Z,99408.94
2023-01-13T08:45:30.103Z,99411.16
2023-01-13T08:46:30.388Z,99416.97
2023-01-13T08:47:30.904Z,99409.51
2023-01-13T08:48:31.666Z,99414.11
2023-01-13T08:49:31.323Z,99415.34
2023-01-13T08:50:31.849Z,99406.48
2023-01-13T08:51:32.085Z,99411.96
2023-01-13T08:52:32.596Z,99412.27
2023-01-13T08:53:32.741Z,99411.78
2023-01-13T08:54:33.106Z,99408.55
2023-01-13T08:55:33.623Z,99416.7
2023-01-13T08:56:35.571Z,99414.54
2023-01-13T08:57:34.759Z,99411.25
2023-01-13T08:58:34.548Z,99408.73
2023-01-13T08:59:35.183Z,99410.77
2023-01-13T09:00:35.185Z,99408.16
2023-01-13T09:01:35.685Z,99414.73
2023-01-13T09:02:36.121Z,99417.52
2023-01-13T09:03:36.425Z,99414.73
2023-01-13T09:04:36.775Z,99414.23
2023-01-13T09:05:37.282Z,99409.83
2023-01-13T09:06:37.386Z,99415
2023-01-13T09:07:38.416Z,99411.7
2023-01-13T09:08:38.226Z,99410.11
2023-01-13T09:09:38.930Z,99408.79
2023-01-13T09:10:38.849Z,99405.84
2023-01-13T09:11:43.145Z,99407.14
2023-01-13T09:12:40.806Z,99403.54
2023-01-13T09:13:40.695Z,99400.59
2023-01-13T09:14:41.330Z,99401.18
2023-01-13T09:15:45.215Z,99401.28
2023-01-13T09:16:42.666Z,99397.48
2023-01-13T09:17:42.886Z,99394.03
2023-01-13T09:18:43.413Z,99401.69
2023-01-13T09:19:43.624Z,99396.59
2023-01-13T09:20:44.026Z,99396.73
2023-01-13T09:21:44.655Z,99389.49
2023-01-13T09:22:44.647Z,99394.99
2023-01-13T09:23:45.170Z,99391.35
2023-01-13T09:24:46.220Z,99396.05
2023-01-13T09:25:46.013Z,99395.05
2023-01-13T09:26:46.527Z,99394.34
2023-01-13T09:27:46.433Z,99396.31
2023-01-13T09:28:47.456Z,99401.06
2023-01-13T09:29:47.357Z,99395.97
2023-01-13T09:30:47.627Z,99398.71
2023-01-13T09:31:48.342Z,99398.36
2023-01-13T09:32:48.300Z,99395.65
2023-01-13T09:33:48.822Z,99393.96
2023-01-13T09:34:49.026Z,99392.05
2023-01-13T09:35:49.565Z,99391.88
2023-01-13T09:36:49.975Z,99391.87
2023-01-13T09:37:50.172Z,99397.22
2023-01-13T09:38:50.724Z,99391.28
2023-01-13T09:39:50.819Z,99394.3
2023-01-13T09:40:51.220Z,99392.82
2023-01-13T09:41:56.030Z,99387.2
2023-01-13T09:43:01.513Z,99394.56
2023-01-13T09:43:59.730Z,99392.44
2023-01-13T09:47:14.397Z,99391.78
2023-01-13T09:49:18.916Z,99389.23
2023-01-13T09:51:25.046Z,99393.93
2023-01-13T09:52:26.545Z,99390.48
2023-01-13T09:53:28.899Z,99390.06
2023-01-13T09:56:27.969Z,99387.53
2023-01-13T09:58:30.348Z,99390.36
2023-01-13T09:59:32.916Z,99387.55
2023-01-13T10:03:38.855Z,99385.47
2023-01-13T10:04:39.445Z,99388.26
2023-01-13T10:05:44.523Z,99386.12
2023-01-13T10:06:47.405Z,99383.58
2023-01-13T10:07:51.612Z,99388.98
2023-01-13T10:08:49.871Z,99385.2
2023-01-13T10:09:54.090Z,99390.45
2023-01-13T10:11:59.420Z,99385.7
2023-01-13T10:12:56.864Z,99388.58
2023-01-13T10:14:01.066Z,99387.58
2023-01-13T10:14:58.412Z,99378.02
2023-01-13T10:27:39.861Z,99368.62
2023-01-13T10:28:37.909Z,99367.85
2023-01-13T10:29:38.346Z,99370.03
2023-01-13T10:30:43.975Z,99373.23
2023-01-13T10:31:41.445Z,99365.48
2023-01-13T10:32:46.870Z,99369.59
2023-01-13T10:33:44.605Z,99368.2
2023-01-13T10:34:50.661Z,99370.44
2023-01-13T10:37:03.277Z,99367.97
2023-01-13T10:37:59.490Z,99366.59
2023-01-13T10:38:52.219Z,99359.84
2023-01-13T10:39:56.211Z,99358.57
2023-01-13T10:40:56.761Z,99360.04
2023-01-13T10:43:05.768Z,99365.41
2023-01-13T10:44:14.912Z,99364.34
2023-01-13T10:46:14.403Z,99358.68
2023-01-13T10:47:20.427Z,99356.31
2023-01-13T10:48:14.391Z,99352.15
2023-01-13T10:53:26.628Z,99358.05
2023-01-13T10:54:23.880Z,99359.94
2023-01-13T10:56:26.947Z,99356.48
2023-01-13T10:57:26.258Z,99353.05
2023-01-13T10:58:25.627Z,99349.05
2023-01-13T10:59:27.395Z,99355.45
2023-01-13T11:00:34.152Z,99352.91
2023-01-13T11:01:27.680Z,99348.55
2023-01-13T11:02:32.340Z,99348.05
2023-01-13T11:03:42.268Z,99345.09
2023-01-13T11:05:40.004Z,99342.83
2023-01-13T11:06:46.053Z,99338.5
2023-01-13T11:07:51.280Z,99344.03
2023-01-13T11:08:46.586Z,99342.22
2023-01-13T11:09:43.934Z,99346.17
2023-01-13T11:10:50.194Z,99339.95
2023-01-13T11:11:47.714Z,99328.14
2023-01-13T11:13:55.311Z,99341.34
2023-01-13T11:14:53.069Z,99339.54
2023-01-13T11:16:05.809Z,99340.62
2023-01-13T11:16:58.714Z,99338.32
2023-01-13T11:18:03.646Z,99338.71
2023-01-13T11:19:05.913Z,99335.63
2023-01-13T11:22:23.114Z,99342.21
2023-01-13T11:23:19.644Z,99343.01
2023-01-13T11:31:36.917Z,99340
2023-01-13T11:32:39.890Z,99339.39
2023-01-13T11:34:41.528Z,99345.09
2023-01-13T11:35:47.883Z,99337.88
2023-01-13T11:37:44.310Z,99335.89
2023-01-13T11:40:50.853Z,99345.24
2023-01-13T11:41:56.318Z,99347.23
2023-01-13T11:42:54.879Z,99339.94
2023-01-13T11:44:00.391Z,99346.25
2023-01-13T11:46:01.056Z,99344.11
2023-01-13T11:46:58.453Z,99340.09
2023-01-13T11:48:01.360Z,99342.95
2023-01-13T11:49:01.108Z,99339.12
2023-01-13T11:50:01.296Z,99338.26
2023-01-13T11:51:09.065Z,99344.44
2023-01-13T12:06:43.586Z,99342.33
2023-01-13T12:23:32.537Z,99333.67
2023-01-13T12:25:33.367Z,99345.42
2023-01-13T12:26:26.452Z,99345.5
2023-01-13T12:28:35.381Z,99329.85
2023-01-13T12:29:36.869Z,99338.55
2023-01-13T12:32:38.424Z,99334.61
2023-01-13T12:44:00.207Z,99340.84
2023-01-13T12:52:20.083Z,99334.47
2023-01-13T12:57:34.807Z,99341.34
2023-01-13T12:58:34.188Z,99343.17
2023-01-13T12:59:35.528Z,99342.01
2023-01-13T13:01:38.143Z,99341.63
2023-01-13T13:02:40.144Z,99342.19
2023-01-13T13:03:38.931Z,99340.88
2023-01-13T13:06:51.336Z,99337.48
2023-01-13T13:07:52.089Z,99334.64
2023-01-13T13:11:55.065Z,99332.3
2023-01-13T13:13:00.698Z,99338.09
2023-01-13T13:13:59.333Z,99336.71
2023-01-13T13:15:03.880Z,99333.94
2023-01-13T13:17:01.778Z,99337.95
2023-01-13T13:21:12.443Z,99332.44
2023-01-13T13:24:16.444Z,99332.62
2023-01-13T13:28:24.899Z,99334.25
2023-01-13T13:39:47.329Z,99333.44
2023-01-13T13:40:48.014Z,99334.77
2023-01-13T13:41:50.574Z,99332.39
2023-01-13T13:42:56.824Z,99327.22
2023-01-13T13:43:50.248Z,99329.11
2023-01-13T13:44:50.995Z,99332.39
2023-01-13T13:45:52.027Z,99330.81
2023-01-13T13:46:50.679Z,99327.63
2023-01-13T13:47:50.587Z,99328.87
2023-01-13T13:48:55.096Z,99329.59
2023-01-13T13:49:53.465Z,99330.1
2023-01-13T13:50:55.986Z,99331.31
2023-01-13T13:53:05.060Z,99338.98
2023-01-13T13:54:03.224Z,99327.16
2023-01-13T13:57:16.580Z,99332.06
2023-01-13T13:58:17.092Z,99332.73
2023-01-13T13:59:17.390Z,99328.69
2023-01-13T14:04:24.862Z,99328.03
2023-01-13T14:05:29.011Z,99329.78
2023-01-13T14:06:26.642Z,99327.41
2023-01-13T14:07:27.097Z,99330.26
2023-01-13T14:08:32.980Z,99329.93
2023-01-13T14:10:38.356Z,99327.41
2023-01-13T14:11:35.867Z,99333.41
2023-01-13T14:12:38.329Z,99327.17
2023-01-13T14:13:36.485Z,99339.71
2023-01-13T14:14:36.662Z,99330.03
2023-01-13T14:15:37.354Z,99332.89
2023-01-13T14:16:39.778Z,99333.05
2023-01-13T14:17:38.861Z,99332.09
2023-01-13T14:19:42.148Z,99334.97
2023-01-13T14:20:43.335Z,99334.53
2023-01-13T14:21:47.796Z,99328.08
2023-01-13T14:22:49.855Z,99340.27
2023-01-13T14:23:55.885Z,99341.03
2023-01-13T14:24:49.422Z,99335.67
2023-01-13T14:25:50.592Z,99328.95
2023-01-13T14:26:49.271Z,99336.26
2023-01-13T14:27:49.644Z,99332.07
2023-01-13T14:28:49.879Z,99327.73
2023-01-13T14:29:53.060Z,99330.87
2023-01-13T14:30:52.141Z,99333.38
2023-01-13T14:31:53.589Z,99327.23
2023-01-13T14:32:53.281Z,99332.41
2023-01-13T14:33:55.043Z,99329.94
2023-01-13T14:34:52.889Z,99330.44
2023-01-13T14:36:57.703Z,99333.05
2023-01-13T14:38:04.673Z,99330.28
2023-01-13T14:43:16.584Z,99333.12
2023-01-13T14:45:24.888Z,99328.63
2023-01-13T14:46:22.558Z,99330.74
2023-01-13T14:47:26.817Z,99331.82
2023-01-13T14:48:32.898Z,99334.28
2023-01-13T14:50:31.678Z,99334.05
2023-01-13T14:51:31.073Z,99334.87
2023-01-13T14:52:36.498Z,99332.56
2023-01-13T14:53:43.061Z,99327.06
2023-01-13T14:55:38.517Z,99327.37
2023-01-13T14:57:41.452Z,99331
2023-01-13T14:58:40.739Z,99331.74
2023-01-13T14:59:48.948Z,99326.33
2023-01-13T15:00:41.471Z,99328.86
2023-01-13T15:01:42.267Z,99326.14
2023-01-13T15:02:50.004Z,99333.79
2023-01-13T15:03:42.687Z,99329.36
2023-01-13T15:04:42.722Z,99331.06
2023-01-13T15:05:49.104Z,99327.88
2023-01-13T15:06:48.788Z,99330.48
2023-01-13T15:08:48.687Z,99334.34
2023-01-13T15:11:56.417Z,99333.42
2023-01-13T15:12:59.072Z,99335.06
2023-01-13T15:14:01.143Z,99336.54
2023-01-13T15:14:58.871Z,99336.45
2023-01-13T15:16:01.106Z,99334.97
2023-01-13T15:16:59.290Z,99340.81
2023-01-13T15:18:00.854Z,99338.02
2023-01-13T15:19:00.029Z,99336.8
2023-01-13T15:20:00.405Z,99335.72
2023-01-13T15:21:00.667Z,99338.59
2023-01-13T15:22:01.059Z,99341.52
2023-01-13T15:23:01.603Z,99340.97
2023-01-13T15:24:01.788Z,99345.66
2023-01-13T15:25:02.220Z,99347.12
2023-01-13T15:26:03.046Z,99344.05
2023-01-13T15:27:12.268Z,99343.72
2023-01-13T15:28:06.535Z,99350.73
2023-01-13T15:29:11.354Z,99344.92
2023-01-13T15:30:16.996Z,99341.12
2023-01-13T15:31:09.882Z,99346.19
2023-01-13T15:32:19.396Z,99343.64
2023-01-13T15:33:14.046Z,99349.74
2023-01-13T15:34:12.215Z,99342.02
2023-01-13T15:35:17.129Z,99340.88
2023-01-13T15:37:17.056Z,99341
2023-01-13T15:38:22.895Z,99346.66
2023-01-13T15:39:20.324Z,99341.25
2023-01-13T15:40:23.305Z,99346.41
2023-01-13T15:41:22.584Z,99350.92
2023-01-13T15:42:21.463Z,99352.07
2023-01-13T15:43:23.541Z,99345.12
2023-01-13T15:44:22.416Z,99348.06
2023-01-13T15:45:22.721Z,99346.48
2023-01-13T15:46:23.553Z,99343.95
2023-01-13T15:47:26.822Z,99340.09
2023-01-13T15:48:26.238Z,99341.8
2023-01-13T15:49:36.778Z,99351.16
2023-01-13T15:50:29.116Z,99343.7
2023-01-13T15:51:29.790Z,99346.23
2023-01-13T15:52:30.054Z,99346.41
2023-01-13T15:53:30.350Z,99342.78
2023-01-13T15:54:30.771Z,99349.67
2023-01-13T15:55:33.304Z,99349.06
2023-01-13T15:56:33.938Z,99351.68
2023-01-13T15:57:34.483Z,99354.62
2023-01-13T15:58:31.914Z,99357.18
2023-01-13T15:59:32.446Z,99358.72
2023-01-13T16:00:32.682Z,99355.91
2023-01-13T16:01:33.087Z,99354.44
2023-01-13T16:02:33.386Z,99361.44